Time;durP1;ratioP1;P1;durP2;ratioP2;P2;SDS_P1;SDS_P2;PMS_P1;PMS_P2;Temp;Humidity;BMP_temperature;BMP_pressure;BME280_temperature;BME280_humidity;BME280_pressure;Samples;Min_cycle;Max_cycle;Signal;HPM_P1;HPM_P2
2023/04/24 00:02:03;;;;;;;1.03;1.03;;;12.40;99.90;;;;;;5096617;28;20193;-78
2023/04/24 00:04:31;;;;;;;1.47;1.30;;;12.30;99.90;;;;;;5096218;28;20202;-81
2023/04/24 00:06:59;;;;;;;2.37;1.40;;;12.30;99.90;;;;;;5096356;28;20638;-80
2023/04/24 00:09:26;;;;;;;2.37;1.30;;;12.30;99.90;;;;;;5095928;28;20261;-80
2023/04/24 00:11:54;;;;;;;1.60;1.10;;;12.30;99.90;;;;;;5096314;28;20221;-79
2023/04/24 00:14:23;;;;;;;1.20;1.20;;;12.20;99.90;;;;;;5096852;28;20614;-81
2023/04/24 00:16:50;;;;;;;1.57;1.30;;;12.20;99.90;;;;;;5096921;28;20326;-81
2023/04/24 00:19:17;;;;;;;1.07;1.00;;;12.30;99.90;;;;;;5096134;28;20718;-78
2023/04/24 00:21:45;;;;;;;2.20;1.10;;;12.30;99.90;;;;;;5095676;28;20597;-80
2023/04/24 00:24:12;;;;;;;3.13;1.33;;;12.20;99.90;;;;;;5096299;28;20646;-79
2023/04/24 00:26:39;;;;;;;1.10;1.00;;;12.10;99.90;;;;;;5100188;28;20202;-80
2023/04/24 00:29:06;;;;;;;1.50;1.40;;;12.10;99.90;;;;;;5103624;28;20709;-77
2023/04/24 00:31:34;;;;;;;1.50;1.40;;;12.10;99.90;;;;;;5112847;28;20209;-80
2023/04/24 00:34:01;;;;;;;1.60;1.50;;;11.90;99.90;;;;;;5107042;28;20224;-80
2023/04/24 00:36:28;;;;;;;1.73;1.33;;;12.00;99.90;;;;;;5116190;28;20201;-80
2023/04/24 00:38:56;;;;;;;1.93;1.50;;;12.10;99.90;;;;;;5114867;28;20627;-79
2023/04/24 00:41:23;;;;;;;1.93;1.37;;;12.00;99.90;;;;;;5115673;28;20211;-82
2023/04/24 00:43:50;;;;;;;2.00;1.80;;;12.00;99.90;;;;;;5115257;28;20203;-80
2023/04/24 00:46:17;;;;;;;1.80;1.67;;;11.90;99.90;;;;;;5115574;28;20293;-82
2023/04/24 00:48:44;;;;;;;1.70;1.60;;;11.90;99.90;;;;;;5115140;28;20213;-82
2023/04/24 00:51:11;;;;;;;1.80;1.47;;;11.90;99.90;;;;;;5115764;28;20204;-82
2023/04/24 00:53:38;;;;;;;1.80;1.70;;;11.70;99.90;;;;;;5115773;28;20216;-82
2023/04/24 00:56:06;;;;;;;1.80;1.70;;;11.70;99.90;;;;;;5116002;28;21040;-79
2023/04/24 00:58:33;;;;;;;2.57;1.57;;;11.60;99.90;;;;;;5115199;28;20732;-81
2023/04/24 01:01:02;;;;;;;2.80;1.60;;;11.70;99.90;;;;;;5104237;28;20193;-81
2023/04/24 01:03:31;;;;;;;1.40;1.30;;;11.70;99.90;;;;;;5096227;28;20833;-81
2023/04/24 01:05:58;;;;;;;1.60;1.50;;;11.70;99.90;;;;;;5096422;28;20209;-79
2023/04/24 01:08:27;;;;;;;1.70;1.60;;;11.60;99.90;;;;;;5095920;28;20225;-79
2023/04/24 01:10:54;;;;;;;1.60;1.50;;;11.50;99.90;;;;;;5095349;28;20217;-78
2023/04/24 01:13:22;;;;;;;2.47;1.70;;;11.50;99.90;;;;;;5095539;28;20569;-80
2023/04/24 01:15:49;;;;;;;3.53;1.50;;;11.50;99.90;;;;;;5095363;28;20209;-80
2023/04/24 01:18:16;;;;;;;1.47;1.37;;;11.30;99.90;;;;;;5109924;28;20201;-79
2023/04/24 01:20:45;;;;;;;1.77;1.60;;;11.20;99.90;;;;;;5115161;28;20201;-80
2023/04/24 01:23:13;;;;;;;1.77;1.63;;;11.00;99.90;;;;;;5113132;28;20202;-78
2023/04/24 01:25:40;;;;;;;2.33;1.40;;;11.00;99.90;;;;;;5113458;28;20269;-78
2023/04/24 01:28:07;;;;;;;2.23;1.83;;;10.90;99.90;;;;;;5113823;28;20200;-81
2023/04/24 01:30:34;;;;;;;2.10;1.90;;;10.70;99.90;;;;;;5113065;28;20283;-78
2023/04/24 01:33:02;;;;;;;3.23;2.23;;;10.60;99.90;;;;;;5115177;28;20213;-81
2023/04/24 01:35:29;;;;;;;2.73;1.90;;;10.80;99.90;;;;;;5118789;28;20556;-81
2023/04/24 01:37:56;;;;;;;1.83;1.73;;;10.80;99.90;;;;;;5118065;28;20296;-80
2023/04/24 01:40:24;;;;;;;1.80;1.70;;;10.60;99.90;;;;;;5118008;28;20225;-78
2023/04/24 01:42:52;;;;;;;1.80;1.60;;;10.70;99.90;;;;;;5118779;28;20211;-79
2023/04/24 01:45:18;;;;;;;2.00;1.80;;;10.80;99.90;;;;;;5120179;28;20324;-81
2023/04/24 01:47:46;;;;;;;3.10;1.73;;;10.90;99.90;;;;;;5120337;28;20264;-81
2023/04/24 01:50:13;;;;;;;3.17;1.70;;;10.70;99.90;;;;;;5120643;28;20220;-78
2023/04/24 01:52:40;;;;;;;1.70;1.60;;;10.40;99.90;;;;;;5120193;28;20729;-79
2023/04/24 01:55:08;;;;;;;2.63;2.23;;;10.90;99.90;;;;;;5120611;28;20207;-78
2023/04/24 01:57:37;;;;;;;5.23;1.80;;;10.60;99.90;;;;;;5102742;28;20225;-78
2023/04/24 02:00:05;;;;;;;3.37;1.63;;;10.60;99.90;;;;;;5099369;28;20742;-79
2023/04/24 02:02:32;;;;;;;2.00;1.80;;;10.50;99.90;;;;;;5099779;28;20193;-78
2023/04/24 02:04:59;;;;;;;2.53;1.90;;;10.70;99.90;;;;;;5115077;28;20220;-82
2023/04/24 02:07:26;;;;;;;3.00;1.73;;;10.60;99.90;;;;;;5099720;28;20237;-82
2023/04/24 02:09:53;;;;;;;1.50;1.40;;;10.40;99.90;;;;;;5098333;28;20214;-80
2023/04/24 02:12:19;;;;;;;1.67;1.57;;;10.50;99.90;;;;;;5097269;28;20224;-82
2023/04/24 02:14:48;;;;;;;1.77;1.50;;;10.50;99.90;;;;;;5099026;28;20208;-80
2023/04/24 02:17:15;;;;;;;1.63;1.53;;;10.50;99.90;;;;;;5099186;28;20212;-79
2023/04/24 02:19:42;;;;;;;1.47;1.37;;;10.40;99.90;;;;;;5098697;28;20221;-79
2023/04/24 02:22:10;;;;;;;1.87;1.47;;;10.50;99.90;;;;;;5099055;28;20197;-79
2023/04/24 02:24:37;;;;;;;1.80;1.50;;;10.60;99.90;;;;;;5108152;28;20228;-80
2023/04/24 02:27:04;;;;;;;1.60;1.50;;;10.50;99.90;;;;;;5120086;28;20197;-80
2023/04/24 02:29:31;;;;;;;2.97;2.40;;;10.60;99.90;;;;;;5119270;28;20694;-78
2023/04/24 02:31:59;;;;;;;1.67;1.57;;;10.50;99.90;;;;;;5120215;28;20209;-78
2023/04/24 02:34:26;;;;;;;1.83;1.63;;;10.50;99.90;;;;;;5119284;28;20293;-81
2023/04/24 02:36:54;;;;;;;1.20;1.20;;;10.60;99.90;;;;;;5100214;28;20194;-78
2023/04/24 02:39:21;;;;;;;1.47;1.30;;;10.50;99.90;;;;;;5098156;28;20221;-80
2023/04/24 02:41:48;;;;;;;1.63;1.30;;;10.40;99.90;;;;;;5097798;28;20193;-79
2023/04/24 02:44:15;;;;;;;1.80;1.30;;;10.40;99.90;;;;;;5113809;28;20582;-80
2023/04/24 02:46:42;;;;;;;1.10;1.10;;;10.50;99.90;;;;;;5098841;28;20237;-79
2023/04/24 02:49:11;;;;;;;1.47;1.30;;;10.40;99.90;;;;;;5098772;28;20236;-80
2023/04/24 02:51:40;;;;;;;1.13;1.03;;;10.40;99.90;;;;;;5098764;28;20197;-80
2023/04/24 02:54:07;;;;;;;1.43;0.90;;;10.50;99.90;;;;;;5098576;28;20217;-81
2023/04/24 02:56:34;;;;;;;1.33;1.10;;;10.40;99.90;;;;;;5099617;28;20205;-79
2023/04/24 02:59:01;;;;;;;1.40;1.30;;;10.40;99.90;;;;;;5099327;28;20229;-81
2023/04/24 03:01:28;;;;;;;1.20;1.10;;;10.50;99.90;;;;;;5098663;28;20254;-79
2023/04/24 03:03:55;;;;;;;1.30;1.10;;;10.50;99.90;;;;;;5098475;28;20201;-81
2023/04/24 03:06:23;;;;;;;1.30;1.20;;;10.40;99.90;;;;;;5097910;28;20198;-81
2023/04/24 03:08:50;;;;;;;1.23;1.13;;;10.30;99.90;;;;;;5097444;28;20228;-81
2023/04/24 03:11:17;;;;;;;1.40;1.30;;;10.40;99.90;;;;;;5116452;28;20291;-79
2023/04/24 03:13:43;;;;;;;1.33;1.23;;;10.30;99.90;;;;;;5119208;28;20686;-81
2023/04/24 03:16:10;;;;;;;1.00;1.00;;;10.20;99.90;;;;;;5117712;28;20288;-81
2023/04/24 03:18:37;;;;;;;1.10;1.10;;;10.00;99.90;;;;;;5098307;28;20310;-82
2023/04/24 03:21:04;;;;;;;1.03;1.03;;;10.00;99.90;;;;;;5098127;28;20210;-81
2023/04/24 03:23:32;;;;;;;1.27;1.00;;;10.00;99.90;;;;;;5097345;28;20204;-79
2023/04/24 03:25:59;;;;;;;4.77;2.33;;;10.10;99.90;;;;;;5096737;28;20202;-81
2023/04/24 03:28:26;;;;;;;1.50;1.40;;;9.70;99.90;;;;;;5097355;28;20225;-78
2023/04/24 03:30:53;;;;;;;1.50;1.20;;;9.60;99.90;;;;;;5098006;28;20237;-79
2023/04/24 03:33:20;;;;;;;1.70;1.60;;;9.30;99.90;;;;;;5097132;28;20218;-81
2023/04/24 03:35:47;;;;;;;4.20;1.40;;;9.20;99.90;;;;;;5115373;28;20250;-82
2023/04/24 03:38:13;;;;;;;1.10;1.00;;;9.20;99.90;;;;;;5117428;28;20222;-80
2023/04/24 03:40:42;;;;;;;2.57;1.10;;;9.30;99.90;;;;;;5116998;28;20208;-82
2023/04/24 03:43:08;;;;;;;1.40;1.20;;;9.50;99.90;;;;;;5117029;28;20205;-81
2023/04/24 03:45:35;;;;;;;1.10;1.03;;;9.40;99.90;;;;;;5115939;28;20200;-82
2023/04/24 03:48:02;;;;;;;1.50;1.10;;;9.40;99.90;;;;;;5115975;28;20280;-81
2023/04/24 03:50:29;;;;;;;1.67;0.97;;;9.40;99.90;;;;;;5109490;28;20235;-82
2023/04/24 03:52:56;;;;;;;3.70;1.07;;;9.20;99.90;;;;;;5099362;28;20217;-82
2023/04/24 03:55:22;;;;;;;1.10;1.10;;;9.10;99.90;;;;;;5112597;28;20197;-82
2023/04/24 03:57:51;;;;;;;0.90;0.90;;;9.20;99.90;;;;;;5106584;28;20307;-82
2023/04/24 04:00:18;;;;;;;2.13;1.13;;;9.10;99.90;;;;;;5097744;28;20756;-82
2023/04/24 04:02:45;;;;;;;1.30;1.20;;;9.10;99.90;;;;;;5113964;28;20280;-82
2023/04/24 04:05:12;;;;;;;1.60;1.13;;;9.10;99.90;;;;;;5107203;28;20205;-82
2023/04/24 04:07:38;;;;;;;1.40;1.23;;;9.00;99.90;;;;;;5114151;28;20193;-80
2023/04/24 04:10:06;;;;;;;1.47;1.37;;;8.80;99.90;;;;;;5116703;28;20263;-80
2023/04/24 04:12:33;;;;;;;1.70;1.23;;;8.80;99.90;;;;;;5115611;28;20209;-81
2023/04/24 04:15:02;;;;;;;1.50;1.40;;;8.80;99.90;;;;;;5115984;28;20193;-81
2023/04/24 04:17:28;;;;;;;3.47;1.03;;;8.80;99.90;;;;;;5104831;28;20201;-80
2023/04/24 04:19:56;;;;;;;1.10;1.00;;;8.90;99.90;;;;;;5096082;28;20713;-81
2023/04/24 04:22:23;;;;;;;0.87;0.87;;;8.90;99.90;;;;;;5097832;28;20205;-79
2023/04/24 04:24:50;;;;;;;1.17;1.07;;;9.40;99.90;;;;;;5096350;28;20308;-82
2023/04/24 04:27:18;;;;;;;1.60;1.10;;;9.60;99.90;;;;;;5098424;28;20201;-80
2023/04/24 04:29:45;;;;;;;1.20;1.10;;;9.80;99.90;;;;;;5097603;28;20691;-81
2023/04/24 04:32:13;;;;;;;2.80;0.97;;;10.00;99.90;;;;;;5104496;28;20240;-80
2023/04/24 04:34:42;;;;;;;0.67;0.67;;;9.90;99.90;;;;;;5118656;28;20220;-81
2023/04/24 04:37:10;;;;;;;1.20;1.00;;;9.80;99.90;;;;;;5118117;28;20197;-81
2023/04/24 04:39:37;;;;;;;1.10;1.00;;;9.70;99.90;;;;;;5116971;28;20290;-81
2023/04/24 04:42:04;;;;;;;1.43;0.83;;;9.80;99.90;;;;;;5119086;28;20295;-81
2023/04/24 04:44:32;;;;;;;1.63;0.90;;;10.00;99.90;;;;;;5118434;28;20633;-81
2023/04/24 04:47:00;;;;;;;1.27;0.90;;;10.10;99.90;;;;;;5119283;28;20253;-81
2023/04/24 04:49:28;;;;;;;1.40;1.00;;;10.20;99.90;;;;;;5118564;28;20216;-80
2023/04/24 04:51:55;;;;;;;2.53;1.10;;;10.40;99.90;;;;;;5117120;28;20201;-79
2023/04/24 04:54:22;;;;;;;1.00;0.90;;;10.40;99.90;;;;;;5117052;28;20220;-80
2023/04/24 04:56:51;;;;;;;0.80;0.80;;;10.40;99.90;;;;;;5116647;28;20228;-81
2023/04/24 04:59:17;;;;;;;0.90;0.83;;;10.40;99.90;;;;;;5115414;28;20232;-80
2023/04/24 05:01:44;;;;;;;1.90;0.97;;;10.40;99.90;;;;;;5114893;28;20201;-81
2023/04/24 05:04:11;;;;;;;1.27;1.00;;;10.50;99.90;;;;;;5115292;28;20204;-80
2023/04/24 05:06:39;;;;;;;0.90;0.90;;;10.60;99.90;;;;;;5114358;28;20215;-79
2023/04/24 05:09:07;;;;;;;1.17;1.13;;;10.60;99.90;;;;;;5116457;28;20694;-79
2023/04/24 05:11:34;;;;;;;1.27;1.07;;;10.70;99.90;;;;;;5118487;28;20204;-79
2023/04/24 05:14:00;;;;;;;1.10;0.97;;;10.80;99.90;;;;;;5118968;28;20229;-79
2023/04/24 05:16:27;;;;;;;1.10;1.00;;;10.70;99.90;;;;;;5118394;28;20207;-80
2023/04/24 05:18:54;;;;;;;1.10;1.00;;;10.90;99.90;;;;;;5118239;28;20225;-79
2023/04/24 05:21:21;;;;;;;1.97;1.00;;;11.00;99.90;;;;;;5119418;28;20201;-79
2023/04/24 05:23:49;;;;;;;1.00;0.80;;;11.00;99.90;;;;;;5119178;28;20208;-81
2023/04/24 05:26:17;;;;;;;2.40;1.00;;;11.20;99.90;;;;;;5118529;28;20201;-82
2023/04/24 05:28:44;;;;;;;0.83;0.83;;;11.20;99.90;;;;;;5118476;28;20221;-81
2023/04/24 05:31:12;;;;;;;0.90;0.90;;;11.30;99.90;;;;;;5118691;28;20670;-79
2023/04/24 05:33:39;;;;;;;1.90;0.97;;;11.40;99.90;;;;;;5118287;28;20662;-79
2023/04/24 05:36:07;;;;;;;1.17;1.10;;;11.40;99.90;;;;;;5118783;28;20682;-79
2023/04/24 05:38:34;;;;;;;0.90;0.90;;;11.60;99.90;;;;;;5117780;28;20221;-79
2023/04/24 05:41:02;;;;;;;1.40;0.93;;;11.70;99.90;;;;;;5117672;28;20205;-81
2023/04/24 05:43:29;;;;;;;0.93;0.93;;;11.70;99.90;;;;;;5118064;28;20197;-80
2023/04/24 05:45:55;;;;;;;1.30;0.93;;;11.60;99.90;;;;;;5118174;28;20209;-80
2023/04/24 05:48:23;;;;;;;0.90;0.80;;;11.60;99.90;;;;;;5117637;28;20223;-80
2023/04/24 05:50:50;;;;;;;2.00;0.70;;;11.60;99.90;;;;;;5118435;28;20246;-79
2023/04/24 05:53:17;;;;;;;1.80;1.20;;;11.90;99.90;;;;;;5117910;28;20208;-80
2023/04/24 05:55:44;;;;;;;1.53;0.73;;;12.20;99.90;;;;;;5117772;28;20655;-80
2023/04/24 05:58:12;;;;;;;1.20;0.90;;;12.20;99.90;;;;;;5117929;28;20212;-81
2023/04/24 06:00:42;;;;;;;0.83;0.83;;;12.30;99.90;;;;;;5117318;28;20590;-81
2023/04/24 06:03:09;;;;;;;0.67;0.67;;;12.60;99.90;;;;;;5117578;28;20742;-79
2023/04/24 06:05:36;;;;;;;1.03;0.70;;;12.80;99.90;;;;;;5117669;28;20226;-79
2023/04/24 06:08:02;;;;;;;0.80;0.80;;;13.70;99.90;;;;;;5117868;28;20567;-80
2023/04/24 06:10:29;;;;;;;3.77;1.00;;;13.40;99.90;;;;;;5117501;28;20201;-79
2023/04/24 06:13:00;;;;;;;0.80;0.80;;;13.40;99.90;;;;;;5117990;28;20610;-79
2023/04/24 06:15:29;;;;;;;0.87;0.70;;;12.90;99.90;;;;;;5117388;27;20686;-80
2023/04/24 06:17:56;;;;;;;2.20;0.90;;;12.60;99.90;;;;;;5117821;28;20221;-79
2023/04/24 06:20:23;;;;;;;0.73;0.73;;;12.50;99.90;;;;;;5113948;28;20670;-79
2023/04/24 06:22:49;;;;;;;0.80;0.80;;;12.30;99.90;;;;;;5102271;28;20202;-79
2023/04/24 06:25:16;;;;;;;3.90;1.30;;;12.20;99.90;;;;;;5107459;28;20200;-81
2023/04/24 06:27:43;;;;;;;2.03;0.90;;;12.10;99.90;;;;;;5113199;28;20211;-80
2023/04/24 06:30:11;;;;;;;1.00;0.90;;;11.90;99.90;;;;;;5113437;28;20213;-79
2023/04/24 06:32:39;;;;;;;1.00;1.00;;;11.70;99.90;;;;;;5116787;28;20209;-81
2023/04/24 06:35:08;;;;;;;0.90;0.90;;;11.40;99.90;;;;;;5116908;28;20217;-79
2023/04/24 06:37:34;;;;;;;1.20;1.10;;;11.30;99.90;;;;;;5110088;27;20202;-78
2023/04/24 06:40:01;;;;;;;1.20;1.10;;;11.20;99.90;;;;;;5114732;28;20223;-80
2023/04/24 06:42:28;;;;;;;1.60;1.50;;;11.10;99.90;;;;;;5116451;28;20288;-80
2023/04/24 06:44:55;;;;;;;2.47;1.50;;;11.20;99.90;;;;;;5116159;28;20202;-81
2023/04/24 06:47:22;;;;;;;1.30;1.20;;;11.20;99.90;;;;;;5116447;28;20215;-80
2023/04/24 06:49:50;;;;;;;2.00;1.43;;;11.20;99.90;;;;;;5102751;28;20686;-79
2023/04/24 06:52:17;;;;;;;1.30;1.20;;;11.20;99.90;;;;;;5102706;28;20201;-81
2023/04/24 06:54:44;;;;;;;1.70;1.60;;;11.30;99.90;;;;;;5099942;28;20213;-80
2023/04/24 06:57:11;;;;;;;1.70;1.60;;;11.40;99.90;;;;;;5106741;28;20291;-78
2023/04/24 06:59:38;;;;;;;2.73;1.97;;;11.40;99.90;;;;;;5115034;28;20307;-80
2023/04/24 07:02:05;;;;;;;3.87;2.20;;;11.40;99.90;;;;;;5115319;28;20203;-79
2023/04/24 07:04:35;;;;;;;2.67;2.13;;;11.50;99.90;;;;;;5114299;28;20675;-79
2023/04/24 07:07:04;;;;;;;2.70;2.10;;;11.50;99.90;;;;;;5116410;28;20212;-80
2023/04/24 07:09:31;;;;;;;2.30;2.10;;;11.50;99.90;;;;;;5114688;28;20600;-79
2023/04/24 07:11:58;;;;;;;4.00;2.67;;;11.60;99.90;;;;;;5115805;28;20204;-80
2023/04/24 07:14:25;;;;;;;3.13;2.83;;;11.90;99.90;;;;;;5116011;28;20309;-79
2023/04/24 07:16:52;;;;;;;2.90;2.30;;;11.90;99.90;;;;;;5098504;28;20216;-80
2023/04/24 07:19:18;;;;;;;3.90;2.90;;;12.00;99.90;;;;;;5094106;28;20221;-81
2023/04/24 07:21:45;;;;;;;3.47;3.13;;;12.00;99.90;;;;;;5093947;28;20646;-80
2023/04/24 07:24:13;;;;;;;4.87;3.53;;;11.80;99.90;;;;;;5095252;28;20229;-78
2023/04/24 07:26:40;;;;;;;4.77;4.20;;;11.90;99.90;;;;;;5099912;28;20592;-79
2023/04/24 07:29:07;;;;;;;6.53;4.73;;;11.80;99.90;;;;;;5115074;28;20224;-80
2023/04/24 07:31:34;;;;;;;6.77;5.27;;;11.80;99.90;;;;;;5114754;28;20218;-78
2023/04/24 07:34:01;;;;;;;7.60;5.20;;;11.90;99.90;;;;;;5111898;28;20217;-78
2023/04/24 07:36:28;;;;;;;8.80;5.40;;;12.20;99.90;;;;;;5100983;28;20558;-78
2023/04/24 07:38:56;;;;;;;6.67;5.33;;;12.10;99.90;;;;;;5108100;28;20228;-78
2023/04/24 07:41:25;;;;;;;6.97;5.20;;;12.20;99.90;;;;;;5111701;28;20666;-79
2023/04/24 07:43:52;;;;;;;6.80;5.17;;;12.30;99.90;;;;;;5110114;28;20243;-79
2023/04/24 07:46:19;;;;;;;7.57;5.20;;;12.20;99.90;;;;;;5113193;28;20557;-77
2023/04/24 07:48:47;;;;;;;5.93;4.97;;;12.50;99.90;;;;;;5109320;28;20220;-80
2023/04/24 07:51:15;;;;;;;8.17;5.20;;;12.50;99.90;;;;;;5112669;28;20316;-78
2023/04/24 07:53:41;;;;;;;4.90;4.40;;;12.90;99.90;;;;;;5098005;28;20207;-77
2023/04/24 07:56:08;;;;;;;6.40;4.70;;;13.30;99.90;;;;;;5101375;28;20569;-78
2023/04/24 07:58:36;;;;;;;5.67;4.40;;;13.40;99.90;;;;;;5100348;28;20225;-78
2023/04/24 08:01:03;;;;;;;7.40;5.27;;;13.40;99.90;;;;;;5103758;28;20201;-80
2023/04/24 08:03:30;;;;;;;7.47;5.47;;;13.70;99.90;;;;;;5093072;28;20197;-79
2023/04/24 08:05:57;;;;;;;6.80;5.43;;;13.70;99.90;;;;;;5102640;28;20200;-79
2023/04/24 08:08:24;;;;;;;8.10;5.60;;;13.90;99.90;;;;;;5106653;28;20399;-79
2023/04/24 08:10:51;;;;;;;8.00;6.10;;;13.70;99.90;;;;;;5112519;28;20216;-80
2023/04/24 08:13:18;;;;;;;11.30;6.73;;;14.00;99.90;;;;;;5096290;28;20670;-78
2023/04/24 08:15:46;;;;;;;9.70;6.17;;;14.20;99.90;;;;;;5091812;28;20455;-80
2023/04/24 08:18:13;;;;;;;8.77;5.50;;;14.40;99.90;;;;;;5093322;28;20756;-79
2023/04/24 08:20:40;;;;;;;9.33;5.40;;;14.30;99.90;;;;;;5092014;28;20205;-77
2023/04/24 08:23:07;;;;;;;7.67;5.97;;;14.30;99.90;;;;;;5091512;28;20247;-78
2023/04/24 08:25:35;;;;;;;8.37;5.77;;;14.30;99.90;;;;;;5091489;28;20201;-79
2023/04/24 08:28:02;;;;;;;9.00;6.40;;;14.20;99.90;;;;;;5091649;28;20660;-78
2023/04/24 08:30:30;;;;;;;9.03;5.77;;;14.20;99.90;;;;;;5091528;28;20675;-79
2023/04/24 08:32:58;;;;;;;7.37;5.43;;;14.10;99.90;;;;;;5091341;28;20639;-78
2023/04/24 08:35:25;;;;;;;7.45;5.55;;;14.20;99.90;;;;;;5100850;28;20664;-77
2023/04/24 08:37:53;;;;;;;7.30;5.37;;;14.40;99.90;;;;;;5101036;28;20193;-79
2023/04/24 08:40:27;;;;;;;7.63;5.63;;;14.70;99.90;;;;;;5113023;28;20298;-80
2023/04/24 08:42:55;;;;;;;8.07;5.30;;;14.50;99.90;;;;;;5100678;28;20578;-81
2023/04/24 08:45:22;;;;;;;6.90;5.20;;;14.80;99.90;;;;;;5097869;28;20750;-77
2023/04/24 08:47:50;;;;;;;8.73;5.45;;;14.80;99.90;;;;;;5096992;28;20237;-78
2023/04/24 08:50:18;;;;;;;6.43;4.87;;;14.90;99.90;;;;;;5096704;28;20221;-79
2023/04/24 08:52:45;;;;;;;6.87;5.20;;;14.90;99.90;;;;;;5099439;28;20205;-80
2023/04/24 08:55:12;;;;;;;6.57;4.80;;;14.40;99.90;;;;;;5102936;28;20221;-81
2023/04/24 08:57:40;;;;;;;6.97;4.93;;;13.90;99.90;;;;;;5116293;28;20189;-80
2023/04/24 09:00:08;;;;;;;5.23;4.50;;;13.80;99.90;;;;;;5120707;28;20299;-82
2023/04/24 09:02:35;;;;;;;5.63;4.33;;;13.70;99.90;;;;;;5120209;28;20209;-81
2023/04/24 09:05:05;;;;;;;6.87;4.87;;;13.40;99.90;;;;;;5101079;28;20292;-82
2023/04/24 09:07:36;;;;;;;6.30;4.87;;;13.30;99.90;;;;;;5099001;28;20205;-81
2023/04/24 09:10:04;;;;;;;7.10;5.43;;;13.10;99.90;;;;;;5099258;28;20590;-81
2023/04/24 09:12:30;;;;;;;10.37;5.80;;;13.20;99.90;;;;;;5100527;28;20290;-81
2023/04/24 09:14:57;;;;;;;7.63;4.73;;;13.40;99.90;;;;;;5100678;28;20245;-81
2023/04/24 09:17:28;;;;;;;6.83;4.43;;;13.30;99.90;;;;;;5101725;28;20201;-81
2023/04/24 09:19:55;;;;;;;4.33;3.63;;;13.30;99.90;;;;;;5110509;28;20215;-79
2023/04/24 09:22:22;;;;;;;4.07;3.50;;;13.80;99.90;;;;;;5122755;28;20284;-80
2023/04/24 09:25:02;;;;;;;4.23;3.43;;;14.50;99.90;;;;;;5122266;28;20231;-83
2023/04/24 09:27:30;;;;;;;5.33;3.27;;;14.50;99.90;;;;;;5121626;28;20658;-83
2023/04/24 09:29:57;;;;;;;4.93;4.27;;;14.30;99.90;;;;;;5120238;28;20551;-80
2023/04/24 09:32:25;;;;;;;4.60;3.63;;;13.90;99.90;;;;;;5120321;27;20205;-82
2023/04/24 09:35:08;;;;;;;4.47;3.40;;;13.50;99.90;;;;;;5122395;28;20220;-81
2023/04/24 09:37:37;;;;;;;5.67;4.53;;;13.30;99.90;;;;;;5122116;28;20185;-81
2023/04/24 09:40:13;;;;;;;3.93;3.30;;;13.40;99.90;;;;;;5121252;28;20225;-82
2023/04/24 09:42:40;;;;;;;6.83;4.00;;;14.00;99.90;;;;;;5122210;28;20637;-82
2023/04/24 09:45:11;;;;;;;4.10;3.37;;;14.70;99.90;;;;;;5121292;28;20200;-81
2023/04/24 09:47:38;;;;;;;4.90;3.43;;;15.00;99.90;;;;;;5122251;28;20196;-79
2023/04/24 09:50:11;;;;;;;3.73;2.93;;;14.60;99.90;;;;;;5121277;28;20213;-81
2023/04/24 09:52:42;;;;;;;4.43;3.40;;;14.30;99.90;;;;;;5115701;28;20190;-82
2023/04/24 09:55:18;;;;;;;3.50;3.10;;;14.30;99.90;;;;;;5100703;28;20216;-80
2023/04/24 09:57:52;;;;;;;2.60;2.33;;;14.10;99.90;;;;;;5106975;28;20465;-81
2023/04/24 10:00:22;;;;;;;3.17;2.60;;;13.90;99.90;;;;;;5120798;28;20231;-82
2023/04/24 10:02:52;;;;;;;2.77;2.57;;;13.80;99.90;;;;;;5120594;28;20232;-83
2023/04/24 10:05:27;;;;;;;3.10;2.80;;;13.80;99.90;;;;;;5120042;28;20189;-82
2023/04/24 10:07:58;;;;;;;4.33;2.80;;;13.90;99.90;;;;;;5121367;28;20200;-82
2023/04/24 10:10:27;;;;;;;2.57;2.37;;;13.70;99.90;;;;;;5120309;28;20307;-82
2023/04/24 10:12:54;;;;;;;3.23;2.43;;;13.60;99.90;;;;;;5119583;28;20207;-79
2023/04/24 10:15:22;;;;;;;3.03;2.50;;;13.40;99.90;;;;;;5119746;28;20216;-82
2023/04/24 10:17:52;;;;;;;3.20;2.87;;;13.30;99.90;;;;;;5120976;28;20654;-82
2023/04/24 10:20:20;;;;;;;4.23;2.80;;;13.30;99.90;;;;;;5120060;28;20225;-80
2023/04/24 10:22:51;;;;;;;3.20;2.63;;;13.10;99.90;;;;;;5120157;28;20292;-83
2023/04/24 10:25:19;;;;;;;3.50;2.67;;;13.20;99.90;;;;;;5117842;28;20199;-84
2023/04/24 10:27:48;;;;;;;4.63;2.80;;;13.10;99.90;;;;;;5119148;28;20250;-83
2023/04/24 10:30:16;;;;;;;2.93;2.60;;;13.10;99.90;;;;;;5120950;28;20221;-82
2023/04/24 10:32:43;;;;;;;2.97;2.60;;;13.20;99.90;;;;;;5120241;28;20209;-83
2023/04/24 10:35:10;;;;;;;2.90;2.60;;;13.40;99.90;;;;;;5119698;28;20221;-82
2023/04/24 10:37:42;;;;;;;3.27;2.70;;;13.40;1.00;;;;;;5118708;28;20201;-82
2023/04/24 10:40:11;;;;;;;4.37;2.83;;;13.50;1.00;;;;;;5118944;28;20934;-82
2023/04/24 10:42:42;;;;;;;3.57;2.60;;;13.60;1.00;;;;;;5119058;28;20276;-82
2023/04/24 10:45:21;;;;;;;3.60;2.70;;;13.60;1.00;;;;;;5119340;28;20184;-82
2023/04/24 10:47:53;;;;;;;4.07;3.10;;;13.80;1.00;;;;;;5119365;28;20185;-82
2023/04/24 10:50:20;;;;;;;3.37;2.87;;;14.10;1.00;;;;;;5119012;28;20208;-82
2023/04/24 10:52:51;;;;;;;3.63;2.73;;;14.50;1.00;;;;;;5119323;28;20572;-82
2023/04/24 10:55:38;;;;;;;3.53;2.63;;;15.00;1.00;;;;;;5119699;28;20692;-82
2023/04/24 10:58:05;;;;;;;4.20;2.87;;;14.80;99.90;;;;;;5119523;28;20276;-81
2023/04/24 11:00:37;;;;;;;3.17;2.63;;;14.20;1.00;;;;;;5120123;28;20205;-82
2023/04/24 11:03:06;;;;;;;3.80;2.93;;;13.70;1.00;;;;;;5119677;28;20201;-82
2023/04/24 11:05:53;;;;;;;3.43;2.90;;;13.50;1.00;;;;;;5118878;28;20219;-81
2023/04/24 11:08:29;;;;;;;2.63;2.40;;;13.50;1.00;;;;;;5118305;28;20263;-82
2023/04/24 11:10:58;;;;;;;2.93;2.50;;;13.30;1.00;;;;;;5119282;28;20181;-82
2023/04/24 11:13:26;;;;;;;3.00;2.70;;;13.00;99.90;;;;;;5120405;28;20264;-82
2023/04/24 11:16:21;;;;;;;2.70;2.30;;;12.80;99.90;;;;;;5120135;28;20217;-82
2023/04/24 11:18:54;;;;;;;3.37;2.10;;;13.10;99.90;;;;;;5119236;28;20287;-82
2023/04/24 11:21:21;;;;;;;2.40;2.20;;;13.60;99.90;;;;;;5119140;28;20221;-82
2023/04/24 11:23:48;;;;;;;2.67;1.87;;;13.80;99.90;;;;;;5118927;28;20628;-80
2023/04/24 11:26:19;;;;;;;1.70;1.60;;;14.20;99.90;;;;;;5119601;28;20280;-83
2023/04/24 11:28:47;;;;;;;2.40;1.63;;;14.20;99.90;;;;;;5119110;28;20221;-83
2023/04/24 11:31:38;;;;;;;1.63;1.53;;;13.80;1.00;;;;;;5119015;28;20207;-82
2023/04/24 11:34:10;;;;;;;1.60;1.50;;;13.60;1.00;;;;;;5118985;28;20228;-82
2023/04/24 11:36:37;;;;;;;1.83;1.73;;;13.80;1.00;;;;;;5118913;28;20220;-83
2023/04/24 11:39:05;;;;;;;1.37;1.30;;;14.40;1.00;;;;;;5118823;28;20224;-83
2023/04/24 11:41:32;;;;;;;1.80;1.70;;;14.50;99.90;;;;;;5118950;28;20209;-81
2023/04/24 11:43:59;;;;;;;3.20;1.80;;;14.30;99.90;;;;;;5117766;28;20225;-83
2023/04/24 11:46:29;;;;;;;2.97;1.80;;;14.20;99.90;;;;;;5117626;28;20658;-83
2023/04/24 11:48:58;;;;;;;2.80;1.73;;;14.10;1.00;;;;;;5117287;28;20221;-85
2023/04/24 11:51:26;;;;;;;2.63;2.10;;;14.20;1.00;;;;;;5116930;28;20209;-84
2023/04/24 11:53:54;;;;;;;1.67;1.57;;;14.50;99.90;;;;;;5117254;28;20243;-83
2023/04/24 11:56:22;;;;;;;2.47;1.70;;;14.50;1.00;;;;;;5118333;28;20225;-84
2023/04/24 11:58:49;;;;;;;1.87;1.77;;;14.20;99.90;;;;;;5117937;28;20248;-84
2023/04/24 12:01:16;;;;;;;2.30;1.60;;;14.10;99.90;;;;;;5118703;28;20215;-81
2023/04/24 12:03:49;;;;;;;1.90;1.80;;;14.50;1.00;;;;;;5118343;28;20886;-83
2023/04/24 12:06:19;;;;;;;1.87;1.40;;;14.90;1.00;;;;;;5118636;28;20621;-83
2023/04/24 12:08:47;;;;;;;1.83;1.73;;;14.60;1.00;;;;;;5117151;28;20270;-83
2023/04/24 12:11:17;;;;;;;1.80;1.70;;;14.20;1.00;;;;;;5115662;27;20254;-83
2023/04/24 12:13:45;;;;;;;1.93;1.83;;;14.20;14.60;;;;;;5097791;28;20214;-84
2023/04/24 12:16:12;;;;;;;2.90;2.07;;;14.00;1.00;;;;;;5098685;28;20225;-84
2023/04/24 12:18:44;;;;;;;2.50;2.10;;;13.90;1.00;;;;;;5111859;28;20300;-83
2023/04/24 12:21:24;;;;;;;2.00;1.90;;;13.70;1.00;;;;;;5095269;28;20651;-83
2023/04/24 12:23:51;;;;;;;1.40;1.30;;;13.40;99.90;;;;;;5096910;28;20250;-82
2023/04/24 12:26:19;;;;;;;0.70;0.70;;;12.60;99.90;;;;;;5097012;28;20292;-84
2023/04/24 12:28:49;;;;;;;0.87;0.87;;;12.10;99.90;;;;;;5098886;28;20232;-84
2023/04/24 12:31:16;;;;;;;1.10;1.03;;;11.60;99.90;;;;;;5095639;28;20236;-83
2023/04/24 12:33:44;;;;;;;2.80;1.40;;;11.50;99.90;;;;;;5096446;28;20268;-84
2023/04/24 12:36:12;;;;;;;1.67;1.57;;;11.40;99.90;;;;;;5096486;28;20307;-83
2023/04/24 12:38:41;;;;;;;1.80;1.70;;;11.40;99.90;;;;;;5095173;28;20232;-82
2023/04/24 12:41:09;;;;;;;2.10;2.00;;;11.30;99.90;;;;;;5094886;28;20782;-83
2023/04/24 12:43:36;;;;;;;3.40;2.50;;;11.50;99.90;;;;;;5095955;28;20209;-84
2023/04/24 12:46:03;;;;;;;2.20;2.07;;;12.30;99.90;;;;;;5096220;28;20240;-85
2023/04/24 12:48:31;;;;;;;2.30;2.10;;;12.80;99.90;;;;;;5096962;28;20320;-82
2023/04/24 12:51:01;;;;;;;2.13;2.00;;;13.40;99.90;;;;;;5096691;28;20299;-84
2023/04/24 12:53:29;;;;;;;2.00;1.90;;;13.30;99.90;;;;;;5097051;28;20213;-84